Time;durP1;ratioP1;P1;durP2;ratioP2;P2;SDS_P1;SDS_P2;PMS_P1;PMS_P2;Temp;Humidity;BMP_temperature;BMP_pressure;BME280_temperature;BME280_humidity;BME280_pressure;Samples;Min_cycle;Max_cycle;Signal;HPM_P1;HPM_P2
2021/10/28 00:13:13;;;;;;;15.60;11.53;;;;;;;12.95;78.61;101487.55;1677708;81;25777;-83
2021/10/28 00:15:43;;;;;;;17.35;11.93;;;;;;;12.96;78.67;101490.05;1727511;81;25831;-83
2021/10/28 00:18:12;;;;;;;19.20;13.13;;;;;;;12.95;78.65;101491.08;1749126;81;26724;-83
2021/10/28 00:20:38;;;;;;;16.87;12.20;;;;;;;12.97;78.68;101491.73;1719744;81;28293;-84
2021/10/28 00:23:08;;;;;;;15.35;10.88;;;;;;;12.97;78.79;101494.42;1730605;81;26331;-83
2021/10/28 00:25:41;;;;;;;14.33;11.53;;;;;;;12.95;78.78;101491.58;1713729;82;25907;-83
2021/10/28 00:28:10;;;;;;;14.93;10.63;;;;;;;12.95;78.84;101487.55;1736464;82;25819;-83
2021/10/28 00:30:37;;;;;;;15.05;11.20;;;;;;;12.95;78.83;101484.86;1752597;81;25898;-83
2021/10/28 00:33:04;;;;;;;19.55;11.33;;;;;;;12.95;78.86;101487.55;1637959;84;27568;-84
2021/10/28 00:35:31;;;;;;;14.25;10.98;;;;;;;12.96;78.86;101475.75;1718543;81;25841;-83
2021/10/28 00:37:58;;;;;;;16.70;11.18;;;;;;;12.96;78.91;101478.44;1736209;82;26258;-84
2021/10/28 00:40:25;;;;;;;14.15;9.83;;;;;;;12.93;78.93;101479.67;1713516;82;25777;-83
2021/10/28 00:42:53;;;;;;;15.93;11.05;;;;;;;12.93;79.07;101481.52;1703942;81;25883;-83
2021/10/28 00:45:25;;;;;;;13.98;10.10;;;;;;;12.90;79.12;101469.26;1736832;82;28278;-83
2021/10/28 00:47:52;;;;;;;17.25;12.07;;;;;;;12.88;79.10;101467.77;1748662;81;26445;-82
2021/10/28 00:50:19;;;;;;;15.53;10.35;;;;;;;12.87;79.30;101472.30;1648434;83;26469;-84
2021/10/28 00:52:46;;;;;;;14.73;11.08;;;;;;;12.86;79.28;101468.45;1682692;81;26485;-82
2021/10/28 00:55:13;;;;;;;13.43;10.58;;;;;;;12.86;79.28;101477.86;1736660;82;25775;-83
2021/10/28 00:57:40;;;;;;;13.68;10.20;;;;;;;12.86;79.28;101473.33;1731249;82;27462;-84
2021/10/28 01:00:08;;;;;;;16.35;10.13;;;;;;;12.87;79.36;101470.95;1707020;81;25896;-83
2021/10/28 01:02:35;;;;;;;13.65;11.03;;;;;;;12.87;79.38;101466.92;1688956;82;25367;-83
2021/10/28 01:05:03;;;;;;;12.70;10.32;;;;;;;12.85;79.34;101466.27;1750422;81;25851;-83
2021/10/28 01:07:30;;;;;;;14.15;10.82;;;;;;;12.87;79.42;101472.30;1717048;83;26091;-83
2021/10/28 01:09:58;;;;;;;13.88;9.75;;;;;;;12.86;79.41;101469.80;1683863;81;27477;-84
2021/10/28 01:12:24;;;;;;;13.45;9.93;;;;;;;12.86;79.42;101471.98;1710855;82;25975;-82
2021/10/28 01:14:52;;;;;;;15.20;10.00;;;;;;;12.85;79.44;101470.30;1713393;82;25325;-84
2021/10/28 01:17:19;;;;;;;17.40;9.98;;;;;;;12.87;79.44;101462.08;1705236;84;26714;-83
2021/10/28 01:19:51;;;;;;;15.80;9.78;;;;;;;12.86;79.49;101453.16;1689485;82;25354;-83
2021/10/28 01:22:19;;;;;;;15.43;10.32;;;;;;;12.85;79.45;101452.01;1693723;81;27377;-84
2021/10/28 01:24:46;;;;;;;14.47;9.40;;;;;;;12.85;79.48;101462.23;1720974;81;25764;-83
2021/10/28 01:27:13;;;;;;;13.85;10.08;;;;;;;12.86;79.49;101450.98;1726353;81;25959;-84
2021/10/28 01:29:42;;;;;;;12.85;9.90;;;;;;;12.87;79.51;101448.62;1678989;81;25727;-84
2021/10/28 01:32:09;;;;;;;13.58;9.23;;;;;;;12.86;79.49;101452.31;1666312;81;25837;-83
2021/10/28 01:34:43;;;;;;;15.93;10.43;;;;;;;12.86;79.48;101457.20;1747255;81;28232;-83
2021/10/28 01:37:12;;;;;;;13.00;9.83;;;;;;;12.88;79.50;101452.97;1747562;81;25388;-82
2021/10/28 01:39:41;;;;;;;11.48;9.08;;;;;;;12.88;79.46;101457.84;1674306;81;25867;-83
2021/10/28 01:42:09;;;;;;;11.88;9.13;;;;;;;12.90;79.48;101453.63;1666318;81;25846;-83
2021/10/28 01:44:38;;;;;;;11.83;9.10;;;;;;;12.88;79.42;101451.13;1751643;81;25754;-84
2021/10/28 01:47:05;;;;;;;14.65;10.05;;;;;;;12.87;79.47;101454.81;1713597;82;27549;-83
2021/10/28 01:49:33;;;;;;;13.55;8.63;;;;;;;12.88;79.50;101457.01;1689133;82;25820;-85
2021/10/28 01:52:00;;;;;;;13.48;8.58;;;;;;;12.86;79.46;101454.51;1658079;82;25941;-83
2021/10/28 01:54:31;;;;;;;13.05;9.43;;;;;;;12.87;79.48;101457.51;1729988;82;26303;-83
2021/10/28 01:56:59;;;;;;;12.47;9.55;;;;;;;12.88;79.49;101456.51;1713062;82;25948;-85
2021/10/28 01:59:26;;;;;;;13.13;8.78;;;;;;;12.88;79.47;101458.34;1682362;82;27646;-83
2021/10/28 02:01:53;;;;;;;11.28;8.50;;;;;;;12.88;79.48;101456.51;1675972;83;25403;-83
2021/10/28 02:04:20;;;;;;;12.63;9.08;;;;;;;12.87;79.46;101450.78;1727714;82;26072;-84
2021/10/28 02:06:47;;;;;;;11.73;9.15;;;;;;;12.86;79.50;101451.81;1712871;82;25808;-84
2021/10/28 02:09:14;;;;;;;12.43;9.30;;;;;;;12.85;79.54;101454.70;1661660;82;25788;-84
2021/10/28 02:11:41;;;;;;;13.58;9.33;;;;;;;12.85;79.60;101448.78;1688912;82;28704;-84
2021/10/28 02:14:08;;;;;;;11.22;9.73;;;;;;;12.85;79.58;101452.01;1720361;81;26199;-82
2021/10/28 02:16:36;;;;;;;17.85;9.30;;;;;;;12.83;79.57;101443.28;1743144;81;26073;-83
2021/10/28 02:19:04;;;;;;;13.15;9.50;;;;;;;12.82;79.70;101445.63;1669742;83;25896;-83
2021/10/28 02:21:31;;;;;;;15.05;10.38;;;;;;;12.81;79.64;101446.67;1703675;81;25621;-82
2021/10/28 02:23:59;;;;;;;10.35;9.18;;;;;;;12.81;79.62;101443.98;1746595;81;27507;-83
2021/10/28 02:26:26;;;;;;;14.63;9.65;;;;;;;12.80;79.64;101444.48;1728434;81;25890;-84
2021/10/28 02:28:56;;;;;;;12.98;9.80;;;;;;;12.81;79.59;101446.67;1679175;81;25868;-83
2021/10/28 02:31:23;;;;;;;11.15;8.65;;;;;;;12.82;79.57;101448.32;1666047;81;26689;-83
2021/10/28 02:33:50;;;;;;;13.13;8.88;;;;;;;12.83;79.54;101450.82;1748544;81;25803;-83
2021/10/28 02:36:17;;;;;;;9.90;8.20;;;;;;;12.84;79.47;101451.66;1751758;80;27051;-83
2021/10/28 02:38:44;;;;;;;12.00;9.13;;;;;;;12.85;79.50;101449.31;1678325;81;25810;-83
2021/10/28 02:41:13;;;;;;;12.50;9.45;;;;;;;12.83;79.44;101450.02;1675817;81;25931;-85
2021/10/28 02:43:41;;;;;;;12.40;9.05;;;;;;;12.80;79.44;101452.55;1748309;81;25811;-83
2021/10/28 02:46:08;;;;;;;11.55;8.88;;;;;;;12.80;79.41;101449.02;1748367;81;26337;-83
2021/10/28 02:48:35;;;;;;;12.05;8.53;;;;;;;12.80;79.41;101457.08;1671772;81;27582;-82
2021/10/28 02:51:02;;;;;;;12.63;8.28;;;;;;;12.82;79.41;101456.39;1666166;81;25803;-84
2021/10/28 02:53:30;;;;;;;11.48;8.48;;;;;;;12.82;79.37;101460.42;1750485;81;26234;-83
2021/10/28 02:55:57;;;;;;;13.85;9.25;;;;;;;12.82;79.31;101457.73;1749614;81;26589;-83
2021/10/28 02:58:24;;;;;;;11.65;8.80;;;;;;;12.84;79.24;101468.64;1679897;81;25845;-82
2021/10/28 03:00:51;;;;;;;13.68;9.55;;;;;;;12.84;79.14;101470.48;1666268;81;27477;-84
2021/10/28 03:03:18;;;;;;;10.35;8.70;;;;;;;12.83;79.13;101468.30;1729515;81;26592;-85
2021/10/28 03:05:45;;;;;;;10.88;9.40;;;;;;;12.84;79.08;101474.52;1749547;81;25799;-83
2021/10/28 03:08:13;;;;;;;9.85;8.75;;;;;;;12.83;79.04;101476.37;1704010;81;25877;-84
2021/10/28 03:10:43;;;;;;;10.75;7.95;;;;;;;12.84;79.06;101478.55;1698260;81;25872;-83
2021/10/28 03:13:08;;;;;;;9.63;8.13;;;;;;;12.85;79.03;101478.36;1751124;81;27518;-83
2021/10/28 03:15:37;;;;;;;12.10;8.73;;;;;;;12.85;78.96;101485.62;1750751;81;26507;-84
2021/10/28 03:26:11;;;;;;;12.28;8.98;;;;;;;12.85;78.90;101504.44;1722383;83;27546;-84
2021/10/28 03:28:38;;;;;;;9.85;8.53;;;;;;;12.84;78.92;101500.91;1656922;83;25407;-84
2021/10/28 03:31:05;;;;;;;11.43;8.90;;;;;;;12.85;78.83;101504.44;1655332;83;25929;-83
2021/10/28 03:33:34;;;;;;;10.68;9.13;;;;;;;12.83;78.76;101507.28;1720894;83;26366;-83
2021/10/28 03:36:02;;;;;;;10.10;9.08;;;;;;;12.84;78.81;101512.16;1719989;83;25915;-83
2021/10/28 03:38:40;;;;;;;11.45;9.18;;;;;;;12.83;78.78;101509.97;1653966;83;28146;-83
2021/10/28 03:43:47;;;;;;;12.85;10.25;;;;;;;12.84;78.75;101509.47;1729155;82;25955;-83
2021/10/28 03:48:43;;;;;;;12.35;10.58;;;;;;;12.83;78.74;101511.85;1659566;82;25783;-82
2021/10/28 03:54:13;;;;;;;15.23;11.25;;;;;;;12.80;78.68;101514.38;1695247;84;26004;-83
2021/10/28 04:20:17;;;;;;;18.95;12.90;;;;;;;12.72;78.93;101531.92;1729578;81;25881;-82
2021/10/28 04:30:39;;;;;;;19.10;14.53;;;;;;;12.72;78.94;101524.36;1711139;82;28338;-84
2021/10/28 04:33:08;;;;;;;16.32;13.38;;;;;;;12.72;79.00;101524.36;1749370;81;25350;-83
2021/10/28 04:35:35;;;;;;;18.15;13.95;;;;;;;12.70;79.00;101523.17;1708367;83;25983;-83
2021/10/28 04:38:02;;;;;;;16.57;13.40;;;;;;;12.70;79.05;101530.42;1703352;81;25837;-83
2021/10/28 04:40:29;;;;;;;19.62;14.40;;;;;;;12.71;79.06;101533.42;1684518;82;25950;-83
2021/10/28 04:42:56;;;;;;;21.48;16.00;;;;;;;12.70;79.08;101538.48;1700598;84;27553;-83
2021/10/28 04:45:23;;;;;;;21.75;15.72;;;;;;;12.68;79.09;101534.61;1666710;84;26004;-83
2021/10/28 04:47:50;;;;;;;19.25;15.72;;;;;;;12.69;79.18;101532.77;1663220;82;25347;-83
2021/10/28 04:50:17;;;;;;;19.50;15.45;;;;;;;12.69;79.18;101528.23;1727272;81;26541;-84
2021/10/28 04:52:44;;;;;;;19.23;15.75;;;;;;;12.68;79.28;101531.11;1735301;81;25874;-83
2021/10/28 04:55:11;;;;;;;19.30;16.30;;;;;;;12.66;79.33;101531.80;1721376;81;27367;-84
2021/10/28 04:57:38;;;;;;;23.52;17.48;;;;;;;12.65;79.33;101528.77;1684780;82;25887;-84
2021/10/28 05:00:07;;;;;;;20.37;16.02;;;;;;;12.64;79.37;101539.20;1727953;81;26173;-86
2021/10/28 05:02:34;;;;;;;24.32;17.05;;;;;;;12.63;79.39;101539.70;1708114;82;26069;-83
2021/10/28 05:05:01;;;;;;;22.27;16.62;;;;;;;12.65;79.44;101543.55;1708464;82;25863;-83
2021/10/28 05:07:28;;;;;;;23.80;17.85;;;;;;;12.67;79.45;101541.02;1672854;82;28281;-83
2021/10/28 05:09:55;;;;;;;21.85;15.60;;;;;;;12.66;79.41;101542.02;1708423;82;25820;-84
2021/10/28 05:12:22;;;;;;;20.95;16.40;;;;;;;12.64;79.41;101540.55;1700347;84;25893;-83
2021/10/28 05:14:49;;;;;;;19.00;16.00;;;;;;;12.62;79.45;101548.77;1732381;81;25825;-83
2021/10/28 05:17:16;;;;;;;20.60;16.05;;;;;;;12.62;79.52;101542.55;1685061;82;26700;-83
2021/10/28 05:19:44;;;;;;;21.57;16.75;;;;;;;12.61;79.57;101545.76;1703592;81;27458;-84
2021/10/28 05:22:11;;;;;;;20.85;15.58;;;;;;;12.61;79.69;101542.23;1728970;81;26678;-83
2021/10/28 05:24:38;;;;;;;21.77;16.60;;;;;;;12.59;79.66;101543.77;1744244;81;25899;-82
2021/10/28 05:27:06;;;;;;;21.48;17.12;;;;;;;12.59;79.72;101546.45;1664126;82;25990;-83
2021/10/28 05:29:33;;;;;;;21.00;17.25;;;;;;;12.59;79.83;101549.63;1701822;81;25825;-83
2021/10/28 05:32:00;;;;;;;21.77;17.50;;;;;;;12.57;79.79;101548.48;1747954;81;28303;-83
2021/10/28 05:34:27;;;;;;;21.68;17.00;;;;;;;12.57;79.87;101553.85;1727943;81;25847;-83
2021/10/28 05:36:54;;;;;;;24.40;17.85;;;;;;;12.57;79.94;101556.54;1666020;82;25960;-82
2021/10/28 05:39:21;;;;;;;21.50;16.70;;;;;;;12.56;79.92;101557.53;1700358;81;26426;-82
2021/10/28 05:41:48;;;;;;;24.47;17.05;;;;;;;12.55;79.94;101559.91;1750795;81;26473;-83
2021/10/28 05:44:16;;;;;;;20.97;15.93;;;;;;;12.57;80.05;101565.09;1722378;81;27376;-83
2021/10/28 05:46:43;;;;;;;22.98;16.77;;;;;;;12.56;80.01;101564.26;1679097;81;25949;-83
2021/10/28 05:49:11;;;;;;;19.02;15.60;;;;;;;12.56;79.99;101571.47;1702221;81;26094;-83
2021/10/28 05:51:38;;;;;;;23.18;17.95;;;;;;;12.55;80.03;101569.31;1704570;82;25880;-83
2021/10/28 05:54:05;;;;;;;20.77;16.80;;;;;;;12.56;80.08;101575.50;1720964;81;26585;-83
2021/10/28 05:56:33;;;;;;;22.58;17.30;;;;;;;12.57;80.14;101576.70;1680647;81;27487;-84
2021/10/28 05:59:00;;;;;;;23.90;18.52;;;;;;;12.57;80.09;101577.19;1703046;81;25966;-83
2021/10/28 06:01:27;;;;;;;22.05;17.50;;;;;;;12.56;80.20;101572.32;1748170;81;25741;-84
2021/10/28 06:03:54;;;;;;;30.77;19.00;;;;;;;12.54;80.21;101578.38;1699591;82;26378;-82
2021/10/28 06:06:21;;;;;;;21.70;17.30;;;;;;;12.54;80.28;101580.22;1659271;83;25849;-83
2021/10/28 06:08:48;;;;;;;23.80;18.48;;;;;;;12.53;80.30;101578.56;1661395;83;27978;-82
2021/10/28 06:11:16;;;;;;;24.92;19.77;;;;;;;12.52;80.31;101579.56;1739751;81;25864;-83
2021/10/28 06:13:46;;;;;;;24.63;18.92;;;;;;;12.53;80.38;101583.41;1718792;81;25891;-83
2021/10/28 06:16:13;;;;;;;24.72;17.77;;;;;;;12.54;80.37;101585.09;1677530;81;25933;-82
2021/10/28 06:18:43;;;;;;;23.60;17.85;;;;;;;12.54;80.38;101586.94;1692373;81;25932;-83
2021/10/28 06:21:12;;;;;;;25.25;19.52;;;;;;;12.55;80.40;101589.47;1726390;82;28346;-84
2021/10/28 06:23:40;;;;;;;22.52;18.32;;;;;;;12.54;80.42;101589.13;1706668;81;25361;-83
2021/10/28 06:26:07;;;;;;;24.90;18.65;;;;;;;12.55;80.41;101596.20;1680405;82;25821;-85
2021/10/28 06:28:34;;;;;;;25.60;19.17;;;;;;;12.55;80.42;101600.72;1700951;81;25990;-82
2021/10/28 06:31:02;;;;;;;27.50;19.12;;;;;;;12.55;80.43;101598.88;1725398;82;25745;-83
2021/10/28 06:33:31;;;;;;;24.02;19.42;;;;;;;12.54;80.42;101601.22;1713459;82;28302;-84
2021/10/28 06:35:58;;;;;;;24.63;19.65;;;;;;;12.57;80.45;101601.38;1677702;81;25871;-84
2021/10/28 06:38:25;;;;;;;24.12;18.67;;;;;;;12.60;80.41;101603.70;1699454;81;25960;-83
2021/10/28 06:40:52;;;;;;;26.15;18.45;;;;;;;12.61;80.42;101604.05;1752004;81;26405;-84
2021/10/28 06:43:20;;;;;;;25.30;18.87;;;;;;;12.63;80.37;101613.62;1719913;81;25402;-83
2021/10/28 06:45:47;;;;;;;22.42;17.73;;;;;;;12.66;80.31;101612.44;1677833;81;27587;-83
2021/10/28 06:48:14;;;;;;;24.80;18.42;;;;;;;12.68;80.29;101612.56;1705121;81;25809;-83
2021/10/28 06:50:51;;;;;;;23.73;18.37;;;;;;;12.69;80.22;101612.91;1741686;81;25891;-83
2021/10/28 07:03:49;;;;;;;24.70;18.27;;;;;;;12.70;80.11;101616.45;1746000;81;25966;-83
2021/10/28 07:06:20;;;;;;;23.25;18.40;;;;;;;12.70;80.27;101613.22;1675612;83;26485;-85
2021/10/28 07:08:46;;;;;;;23.73;18.12;;;;;;;12.74;80.31;101612.38;1715237;81;25895;-82
2021/10/28 07:11:19;;;;;;;20.02;17.57;;;;;;;12.76;80.27;101617.08;1726082;80;28317;-84
2021/10/28 07:13:47;;;;;;;24.35;17.52;;;;;;;12.75;80.13;101612.70;1740093;81;25709;-85
2021/10/28 07:16:26;;;;;;;22.55;18.15;;;;;;;12.75;80.26;101612.70;1677285;81;26034;-84
2021/10/28 07:26:53;;;;;;;25.37;17.65;;;;;;;12.76;80.12;101612.55;1678866;81;25999;-84
2021/10/28 07:59:36;;;;;;;20.17;16.17;;;;;;;13.05;79.64;101599.28;1728893;81;26390;-83
2021/10/28 08:15:57;;;;;;;20.80;15.45;;;;;;;13.18;79.23;101627.43;1714855;81;25781;-83
2021/10/28 08:23:44;;;;;;;19.90;16.80;;;;;;;13.20;79.04;101624.90;1723921;81;26172;-83
2021/10/28 08:28:41;;;;;;;18.80;16.25;;;;;;;13.22;78.94;101622.86;1723387;82;26650;-83
2021/10/28 08:28:45;;;;;;;23.60;17.20;;;;;;;13.25;78.98;101625.70;1647397;82;25997;-83
2021/10/28 08:31:09;;;;;;;20.23;16.32;;;;;;;13.28;78.78;101624.02;1694439;81;28452;-85
2021/10/28 08:33:36;;;;;;;20.23;17.20;;;;;;;13.29;78.66;101620.30;1699135;81;25978;-83
2021/10/28 08:36:11;;;;;;;23.40;16.52;;;;;;;13.29;78.31;101621.14;1750695;81;25797;-82
2021/10/28 08:38:41;;;;;;;21.48;16.30;;;;;;;13.30;78.37;101618.76;1687619;82;26492;-83
2021/10/28 08:41:10;;;;;;;;;;;;;;;13.33;78.65;101618.91;1697119;83;25369;-84
2021/10/28 08:43:44;;;;;;;22.40;16.27;;;;;;;13.36;78.28;101613.19;1716000;82;27612;-84
2021/10/28 08:46:12;;;;;;;19.65;15.85;;;;;;;13.35;78.47;101615.03;1753120;81;25324;-83
2021/10/28 08:48:42;;;;;;;19.37;16.93;;;;;;;13.39;78.52;101613.65;1696882;81;25949;-84
2021/10/28 08:51:25;;;;;;;21.62;17.23;;;;;;;13.44;78.53;101612.61;1726186;81;26566;-84
2021/10/28 08:54:02;;;;;;;20.88;16.50;;;;;;;13.47;78.35;101612.23;1745093;81;26015;-83
2021/10/28 08:59:22;;;;;;;21.42;16.40;;;;;;;13.53;78.25;101612.87;1689776;82;25796;-84
2021/10/28 09:26:52;;;;;;;20.80;15.63;;;;;;;13.75;76.99;101626.80;1708402;82;25865;-83
2021/10/28 09:31:59;;;;;;;22.58;16.40;;;;;;;13.77;76.87;101623.41;1683777;83;25880;-84
2021/10/28 09:34:33;;;;;;;19.35;16.67;;;;;;;13.79;76.69;101625.41;1704154;81;25792;-83
2021/10/28 09:51:02;;;;;;;24.07;17.40;;;;;;;14.08;76.57;101619.74;1681926;81;27588;-84
2021/10/28 09:53:43;;;;;;;21.12;15.88;;;;;;;14.11;76.53;101620.73;1672383;81;25909;-84
2021/10/28 09:58:48;;;;;;;18.05;15.23;;;;;;;14.17;75.98;101611.91;1752059;81;26445;-84
2021/10/28 10:01:45;;;;;;;19.10;15.43;;;;;;;14.19;75.73;101614.74;1754490;81;26006;-85
2021/10/28 10:04:08;;;;;;;20.17;14.35;;;;;;;14.20;75.50;101618.28;1706330;81;27665;-84
2021/10/28 10:06:41;;;;;;;18.50;14.00;;;;;;;14.22;75.57;101619.74;1708493;81;26065;-83
2021/10/28 10:09:08;;;;;;;16.67;12.98;;;;;;;14.24;75.32;101618.23;1754926;81;25876;-84
2021/10/28 10:11:36;;;;;;;16.50;11.78;;;;;;;14.27;75.31;101625.92;1733141;81;25801;-83
2021/10/28 10:14:03;;;;;;;16.07;11.90;;;;;;;14.29;74.48;101625.27;1665981;83;25783;-84
2021/10/28 10:16:30;;;;;;;16.80;12.45;;;;;;;14.30;74.51;101624.25;1638109;83;27392;-83
2021/10/28 10:18:59;;;;;;;12.55;10.88;;;;;;;14.31;74.62;101632.14;1754907;81;26413;-84
2021/10/28 10:21:38;;;;;;;13.15;11.15;;;;;;;14.33;74.46;101619.82;1750863;81;25857;-84
2021/10/28 10:24:43;;;;;;;15.08;10.68;;;;;;;14.34;74.12;101614.27;1655454;81;25856;-84
2021/10/28 11:23:16;;;;;;;19.67;15.38;;;;;;;14.46;71.19;101599.78;1628195;85;25937;-83
2021/10/28 12:20:14;;;;;;;19.32;17.23;;;;;;;15.05;70.37;101568.13;1733273;81;25883;-84
2021/10/28 12:23:18;;;;;;;23.22;18.27;;;;;;;15.06;69.72;101565.73;1743728;81;26432;-84
2021/10/28 12:45:32;;;;;;;22.50;18.50;;;;;;;15.07;70.11;101553.41;1749402;81;25826;-85
2021/10/28 12:50:52;;;;;;;23.57;18.73;;;;;;;15.09;69.68;101541.91;1656620;83;25401;-84
2021/10/28 12:56:38;;;;;;;25.50;20.70;;;;;;;15.06;69.67;101543.64;1749329;81;25723;-84
2021/10/28 13:07:13;;;;;;;24.52;19.25;;;;;;;15.02;69.60;101538.30;1705757;83;27611;-83
2021/10/28 13:28:12;;;;;;;23.80;18.62;;;;;;;15.01;69.23;101532.58;1710610;81;25922;-84
2021/10/28 13:48:29;;;;;;;52.25;34.95;;;;;;;15.01;69.57;101521.78;1745664;81;27448;-84
2021/10/28 13:51:36;;;;;;;31.37;22.60;;;;;;;14.96;69.35;101522.89;1702989;81;25989;-84
2021/10/28 13:58:54;;;;;;;28.85;22.05;;;;;;;14.87;69.66;101515.95;1747262;81;25815;-84
2021/10/28 14:15:28;;;;;;;27.07;20.88;;;;;;;14.66;69.91;101507.84;1681240;81;27624;-80
2021/10/28 14:26:05;;;;;;;24.77;19.02;;;;;;;14.58;70.02;101516.88;1702176;81;25917;-83
2021/10/28 14:34:11;;;;;;;27.00;20.00;;;;;;;14.51;70.15;101517.84;1737631;81;25415;-84
2021/10/28 14:39:01;;;;;;;30.15;21.27;;;;;;;14.45;70.28;101516.75;1722162;81;25335;-83
2021/10/28 15:03:18;;;;;;;34.73;23.87;;;;;;;14.07;70.64;101513.83;1742325;81;26506;-83
2021/10/28 15:27:58;;;;;;;40.95;26.62;;;;;;;13.42;71.25;101502.11;1719046;81;26089;-83
2021/10/28 15:30:34;;;;;;;59.38;35.58;;;;;;;13.34;71.30;101505.73;1672572;81;25859;-83
2021/10/28 15:35:45;;;;;;;59.20;36.58;;;;;;;13.23;71.37;101506.67;1639295;86;28239;-83
2021/10/28 15:38:30;;;;;;;52.10;35.08;;;;;;;13.16;71.32;101502.52;1612031;86;26250;-83
2021/10/28 15:41:00;;;;;;;50.85;32.25;;;;;;;13.12;71.37;101495.34;1651202;82;25610;-84
2021/10/28 15:43:50;;;;;;;40.95;26.82;;;;;;;13.08;71.39;101495.88;1729062;81;26431;-84
2021/10/28 15:57:17;;;;;;;44.18;28.47;;;;;;;12.75;71.72;101492.56;1643792;83;25834;-84
2021/10/28 16:23:57;;;;;;;136.37;93.65;;;;;;;11.89;73.61;101487.02;1699467;82;25776;-78
2021/10/28 16:26:25;;;;;;;140.62;94.05;;;;;;;11.81;73.61;101489.21;1743000;80;25899;-79
2021/10/28 16:28:52;;;;;;;129.30;91.12;;;;;;;11.74;73.43;101486.88;1703892;82;27581;-79
2021/10/28 16:31:19;;;;;;;123.55;84.58;;;;;;;11.68;73.53;101486.72;1702510;81;26591;-79
2021/10/28 16:33:46;;;;;;;118.80;82.92;;;;;;;11.62;73.80;101485.55;1694699;81;26255;-79
2021/10/28 16:36:14;;;;;;;124.58;83.82;;;;;;;11.55;73.78;101481.37;1745598;81;26345;-79
2021/10/28 16:38:43;;;;;;;118.65;81.85;;;;;;;11.49;73.82;101485.23;1719951;81;26536;-79
2021/10/28 16:41:10;;;;;;;124.27;84.67;;;;;;;11.44;73.83;101484.41;1713227;82;27974;-79
2021/10/28 16:43:37;;;;;;;121.50;78.07;;;;;;;11.38;73.90;101485.09;1693021;81;26072;-78
2021/10/28 16:46:04;;;;;;;112.55;71.28;;;;;;;11.36;73.82;101485.77;1748431;81;25762;-79
2021/10/28 16:48:31;;;;;;;114.72;67.55;;;;;;;11.34;73.84;101488.28;1702963;82;26479;-78
2021/10/28 16:50:58;;;;;;;113.40;69.60;;;;;;;11.30;73.84;101486.95;1697316;81;25759;-79
2021/10/28 16:53:26;;;;;;;115.50;68.35;;;;;;;11.26;73.98;101495.01;1724307;81;27491;-78
2021/10/28 16:55:53;;;;;;;103.02;63.68;;;;;;;11.23;73.94;101500.70;1742570;81;26471;-78
2021/10/28 16:58:20;;;;;;;93.65;56.75;;;;;;;11.18;73.85;101499.89;1675505;82;26056;-78
2021/10/28 17:00:51;;;;;;;95.22;55.60;;;;;;;11.14;73.93;101495.03;1697127;81;25797;-78
2021/10/28 17:03:18;;;;;;;91.10;54.38;;;;;;;11.09;74.03;101492.00;1724642;81;26468;-78
2021/10/28 17:05:46;;;;;;;86.05;50.95;;;;;;;11.06;74.11;101495.86;1749371;81;27510;-78
2021/10/28 17:08:14;;;;;;;90.35;52.90;;;;;;;11.02;74.04;101499.03;1699824;81;26109;-78
2021/10/28 17:10:43;;;;;;;92.72;54.18;;;;;;;10.98;74.00;101497.70;1727185;81;25842;-78
2021/10/28 17:13:10;;;;;;;99.58;55.12;;;;;;;10.95;74.09;101493.50;1694461;81;25898;-78
2021/10/28 17:15:37;;;;;;;91.85;50.30;;;;;;;10.95;74.22;101496.70;1743561;81;25283;-80
2021/10/28 17:18:04;;;;;;;86.47;49.83;;;;;;;10.93;74.22;101497.38;1727313;81;28279;-81
2021/10/28 17:20:35;;;;;;;85.40;49.70;;;;;;;10.92;74.34;101500.55;1727399;81;26037;-80
2021/10/28 17:22:59;;;;;;;81.17;47.78;;;;;;;10.89;74.36;101504.89;1697308;81;25985;-78
2021/10/28 17:25:27;;;;;;;66.05;41.30;;;;;;;10.85;74.45;101500.88;1746166;81;26938;-78
2021/10/28 17:27:54;;;;;;;67.80;40.00;;;;;;;10.83;74.72;101501.05;1700640;82;25839;-78
2021/10/28 17:30:22;;;;;;;67.72;40.25;;;;;;;10.82;74.73;101507.41;1701688;81;28452;-78
2021/10/28 17:32:49;;;;;;;65.95;40.50;;;;;;;10.79;74.77;101509.09;1676020;81;25916;-79
2021/10/28 17:35:16;;;;;;;71.95;42.93;;;;;;;10.77;74.85;101499.54;1724533;82;26200;-78
2021/10/28 17:37:43;;;;;;;78.00;43.65;;;;;;;10.75;74.81;101500.20;1700743;81;26689;-79
2021/10/28 17:40:11;;;;;;;72.03;43.68;;;;;;;10.71;75.02;101501.02;1694100;81;25872;-78
2021/10/28 17:42:39;;;;;;;63.02;38.45;;;;;;;10.71;75.34;101501.55;1725270;81;26998;-78
2021/10/28 17:45:08;;;;;;;62.35;39.98;;;;;;;10.72;75.46;101504.05;1745193;81;25737;-79
2021/10/28 17:47:35;;;;;;;70.70;41.48;;;;;;;10.72;75.52;101501.87;1703502;82;25831;-78
2021/10/28 17:50:04;;;;;;;68.65;44.65;;;;;;;10.70;75.60;101503.38;1701861;81;26261;-78
2021/10/28 17:52:31;;;;;;;85.42;55.00;;;;;;;10.68;75.62;101505.39;1689950;81;26005;-79
2021/10/28 17:55:00;;;;;;;80.40;54.60;;;;;;;10.65;75.63;101508.88;1749914;81;27460;-79
2021/10/28 17:57:28;;;;;;;79.03;51.18;;;;;;;10.61;75.79;101502.18;1703309;81;25782;-78
2021/10/28 17:59:55;;;;;;;76.02;46.55;;;;;;;10.56;75.79;101508.55;1701461;81;26016;-79
2021/10/28 18:02:22;;;;;;;73.72;47.50;;;;;;;10.51;75.74;101505.52;1703100;81;25840;-79
2021/10/28 18:04:50;;;;;;;72.80;44.60;;;;;;;10.47;75.88;101502.34;1727682;81;25887;-79
2021/10/28 18:07:18;;;;;;;75.08;46.75;;;;;;;10.42;75.67;101498.45;1700887;81;27463;-78
2021/10/28 18:09:46;;;;;;;72.67;47.00;;;;;;;10.36;75.81;101495.10;1702028;81;25758;-79
2021/10/28 18:12:13;;;;;;;72.58;46.85;;;;;;;10.31;75.85;101491.57;1727869;81;26345;-79
2021/10/28 18:14:40;;;;;;;76.80;46.60;;;;;;;10.28;75.91;101500.44;1746260;81;25865;-78
2021/10/28 18:17:08;;;;;;;79.82;48.33;;;;;;;10.26;75.97;101499.28;1727114;81;25833;-79
2021/10/28 18:19:35;;;;;;;80.22;49.73;;;;;;;10.22;76.10;101499.27;1727814;81;27593;-78
2021/10/28 18:22:03;;;;;;;91.85;51.48;;;;;;;10.22;76.36;101497.08;1693661;81;25935;-79
2021/10/28 18:24:30;;;;;;;87.88;53.68;;;;;;;10.20;76.62;101493.20;1746961;81;25926;-78
2021/10/28 18:26:57;;;;;;;89.92;54.03;;;;;;;10.17;76.74;101494.89;1725465;81;26643;-79
2021/10/28 18:29:24;;;;;;;91.02;54.77;;;;;;;10.13;76.92;101488.19;1702883;81;25840;-79
2021/10/28 18:31:51;;;;;;;92.70;57.50;;;;;;;10.11;76.99;101492.87;1693906;81;28323;-79
2021/10/28 18:34:18;;;;;;;94.67;58.23;;;;;;;10.10;77.20;101488.47;1749907;80;25737;-80
2021/10/28 18:36:46;;;;;;;96.63;57.90;;;;;;;10.06;77.24;101490.64;1695985;81;26500;-78
2021/10/28 18:39:15;;;;;;;95.07;57.73;;;;;;;10.03;77.37;101485.59;1727604;81;25879;-78
2021/10/28 18:41:44;;;;;;;103.90;60.12;;;;;;;10.01;77.37;101486.26;1678443;81;25348;-79
2021/10/28 18:44:11;;;;;;;109.42;58.28;;;;;;;9.99;77.42;101488.75;1750651;81;27430;-78
2021/10/28 18:46:39;;;;;;;107.25;61.70;;;;;;;9.96;77.40;101483.73;1693902;81;26085;-78
2021/10/28 18:49:08;;;;;;;122.07;65.65;;;;;;;9.93;77.51;101482.71;1689965;81;25902;-79
2021/10/28 18:51:38;;;;;;;119.93;65.28;;;;;;;9.89;77.41;101485.38;1703827;81;26426;-79
2021/10/28 18:54:06;;;;;;;123.80;68.83;;;;;;;9.85;77.48;101481.34;1746491;81;25831;-79
2021/10/28 18:56:33;;;;;;;126.45;64.70;;;;;;;9.83;77.66;101480.67;1700872;81;27488;-78
2021/10/28 18:59:01;;;;;;;117.62;63.85;;;;;;;9.81;77.70;101478.16;1662825;81;25894;-79
2021/10/28 19:01:30;;;;;;;109.42;60.43;;;;;;;9.78;77.78;101469.11;1703618;81;25880;-78
2021/10/28 19:03:57;;;;;;;108.55;57.53;;;;;;;9.75;77.78;101469.41;1747105;81;25811;-78
2021/10/28 19:06:25;;;;;;;96.63;54.60;;;;;;;9.71;77.85;101475.27;1726024;80;26604;-80
2021/10/28 19:08:52;;;;;;;93.20;52.95;;;;;;;9.68;77.87;101468.89;1705562;80;28193;-78
2021/10/28 19:11:20;;;;;;;101.92;54.73;;;;;;;9.64;77.95;101464.37;1749647;80;25814;-79